createdAt,value
2017-09-27T00:01:43.240Z,74.29
2017-09-27T00:04:14.674Z,74.37
2017-09-27T00:06:45.718Z,74.40
2017-09-27T00:09:16.827Z,74.52
2017-09-27T00:11:48.182Z,74.70
2017-09-27T00:14:19.337Z,74.88
2017-09-27T00:16:50.426Z,75.22
2017-09-27T00:19:22.251Z,75.56
2017-09-27T00:22:55.495Z,75.86
2017-09-27T00:25:26.862Z,76.01
2017-09-27T00:27:57.954Z,76.19
2017-09-27T00:30:29.503Z,76.41
2017-09-27T00:33:01.073Z,76.87
2017-09-27T00:35:32.607Z,77.00
2017-09-27T00:38:05.195Z,77.18
2017-09-27T00:40:36.578Z,77.36
2017-09-27T00:43:07.634Z,77.63
2017-09-27T00:45:38.978Z,77.93
2017-09-27T00:48:10.037Z,78.04
2017-09-27T00:50:41.121Z,78.26
2017-09-27T00:53:12.475Z,78.48
2017-09-27T00:55:43.611Z,78.55
2017-09-27T00:58:14.750Z,78.53
2017-09-27T01:00:45.838Z,78.53
2017-09-27T01:03:17.371Z,78.69
2017-09-27T01:05:48.447Z,79.02
2017-09-27T01:08:20.010Z,79.08
2017-09-27T01:10:51.139Z,79.04
2017-09-27T01:13:22.222Z,79.22
2017-09-27T01:15:53.607Z,79.55
2017-09-27T01:18:24.679Z,79.75
2017-09-27T01:20:55.796Z,79.82
2017-09-27T01:23:27.170Z,79.69
2017-09-27T01:25:58.313Z,79.44
2017-09-27T01:28:29.971Z,79.26
2017-09-27T01:31:01.884Z,79.23
2017-09-27T01:33:34.095Z,79.30
2017-09-27T01:36:05.820Z,79.40
2017-09-27T01:38:36.942Z,79.37
2017-09-27T01:41:08.048Z,79.47
2017-09-27T01:43:39.749Z,79.64
2017-09-27T01:46:10.848Z,79.73
2017-09-27T01:48:42.258Z,79.82
2017-09-27T01:51:13.358Z,79.85
2017-09-27T01:53:44.495Z,80.34
2017-09-27T01:56:15.937Z,80.75
2017-09-27T01:58:47.037Z,80.79
2017-09-27T02:01:18.173Z,80.87
2017-09-27T02:03:49.572Z,80.92
2017-09-27T02:06:20.679Z,80.91
2017-09-27T02:08:52.036Z,81.18
2017-09-27T02:11:23.125Z,81.20
2017-09-27T02:13:54.164Z,81.20
2017-09-27T02:16:25.707Z,81.40
2017-09-27T02:18:56.749Z,81.68
2017-09-27T02:21:27.981Z,81.83
2017-09-27T02:23:59.380Z,81.99
2017-09-27T02:26:31.346Z,81.97
2017-09-27T02:29:02.462Z,82.08
2017-09-27T02:31:34.980Z,82.10
2017-09-27T02:34:06.202Z,82.19
2017-09-27T02:36:37.584Z,82.35
2017-09-27T02:39:08.668Z,82.45
2017-09-27T02:41:40.045Z,82.54
2017-09-27T02:44:11.408Z,82.65
2017-09-27T02:46:42.537Z,82.63
2017-09-27T02:49:13.639Z,82.59
2017-09-27T02:51:44.968Z,82.71
2017-09-27T02:54:16.050Z,82.64
2017-09-27T02:56:47.345Z,82.69
2017-09-27T02:59:18.418Z,82.74
2017-09-27T03:01:49.467Z,82.76
2017-09-27T03:04:20.811Z,82.84
2017-09-27T03:06:51.916Z,82.98
2017-09-27T03:09:22.994Z,83.12
2017-09-27T03:11:54.331Z,83.09
2017-09-27T03:14:25.634Z,83.01
2017-09-27T03:16:56.712Z,83.04
2017-09-27T03:19:28.102Z,83.09
2017-09-27T03:21:59.185Z,83.17
2017-09-27T03:24:30.660Z,83.19
2017-09-27T03:27:01.889Z,83.29
2017-09-27T03:29:34.243Z,83.43
2017-09-27T03:32:06.051Z,83.39
2017-09-27T03:34:37.121Z,83.38
2017-09-27T03:37:08.186Z,83.43
2017-09-27T03:39:39.518Z,83.52
2017-09-27T03:42:10.642Z,83.41
2017-09-27T03:44:41.961Z,83.33
2017-09-27T03:47:13.062Z,83.40
2017-09-27T03:49:44.148Z,83.39
2017-09-27T03:52:15.501Z,83.37
2017-09-27T03:54:46.562Z,83.33
2017-09-27T03:57:17.660Z,83.27
2017-09-27T03:59:49.093Z,83.25
2017-09-27T04:02:20.134Z,83.15
2017-09-27T04:04:51.217Z,83.14
2017-09-27T04:07:22.571Z,83.06
2017-09-27T04:09:53.637Z,83.01
2017-09-27T04:12:25.000Z,82.98
2017-09-27T04:14:56.064Z,82.99
2017-09-27T04:17:29.258Z,82.81
2017-09-27T04:20:00.837Z,82.68
2017-09-27T04:22:34.531Z,82.53
2017-09-27T04:25:05.913Z,82.47
2017-09-27T04:27:37.344Z,82.40
2017-09-27T04:30:08.418Z,82.19
2017-09-27T04:32:39.751Z,82.04
2017-09-27T04:35:10.834Z,82.05
2017-09-27T04:37:42.223Z,82.08
2017-09-27T04:40:14.726Z,82.07
2017-09-27T04:42:45.818Z,82.03
2017-09-27T04:45:17.236Z,82.05
2017-09-27T04:47:48.340Z,82.05
2017-09-27T04:50:19.471Z,81.96
2017-09-27T04:52:50.815Z,81.84
2017-09-27T04:55:21.895Z,81.83
2017-09-27T04:57:52.944Z,81.72
2017-09-27T05:00:24.339Z,81.66
2017-09-27T05:02:55.491Z,81.73
2017-09-27T05:05:26.671Z,81.84
2017-09-27T05:07:58.045Z,81.89
2017-09-27T05:10:30.161Z,81.98
2017-09-27T05:13:01.923Z,81.96
2017-09-27T05:15:34.073Z,81.80
2017-09-27T05:18:06.148Z,81.85
2017-09-27T05:20:37.589Z,81.93
2017-09-27T05:23:08.722Z,82.22
2017-09-27T05:25:39.849Z,82.40
2017-09-27T05:28:11.462Z,82.50
2017-09-27T05:30:45.874Z,82.51
2017-09-27T05:33:21.455Z,82.73
2017-09-27T05:35:54.147Z,82.73
2017-09-27T05:38:25.206Z,82.54
2017-09-27T05:40:56.313Z,82.30
2017-09-27T05:43:27.721Z,82.18
2017-09-27T05:45:58.871Z,81.92
2017-09-27T05:48:36.090Z,81.74
2017-09-27T05:51:10.607Z,81.55
2017-09-27T05:53:42.239Z,81.42
2017-09-27T05:56:13.371Z,81.49
2017-09-27T05:58:48.652Z,81.45
2017-09-27T06:01:19.804Z,81.17
2017-09-27T06:03:51.528Z,80.81
2017-09-27T06:06:23.415Z,80.43
2017-09-27T06:08:54.535Z,80.15
2017-09-27T06:11:25.937Z,79.85
2017-09-27T06:13:57.664Z,79.32
2017-09-27T06:16:29.056Z,78.88
2017-09-27T06:19:00.253Z,78.31
2017-09-27T06:21:33.258Z,77.86
2017-09-27T06:24:06.008Z,77.47
2017-09-27T06:26:37.429Z,77.12
2017-09-27T06:29:10.127Z,77.13
2017-09-27T06:31:41.772Z,76.76
2017-09-27T06:34:12.840Z,76.29
2017-09-27T06:36:44.248Z,75.99
2017-09-27T06:39:15.363Z,75.83
2017-09-27T06:41:46.601Z,75.68
2017-09-27T06:44:18.053Z,75.16
2017-09-27T06:46:49.184Z,74.49
2017-09-27T06:49:20.615Z,74.03
2017-09-27T06:51:51.728Z,73.48
2017-09-27T06:54:22.865Z,73.06
2017-09-27T06:56:54.211Z,72.57
2017-09-27T06:59:25.344Z,72.37
2017-09-27T07:01:56.743Z,72.11
2017-09-27T07:04:27.896Z,71.83
2017-09-27T07:06:59.020Z,71.43
2017-09-27T07:09:31.423Z,71.03
2017-09-27T07:12:03.856Z,70.99
2017-09-27T07:14:36.610Z,70.59
2017-09-27T07:17:07.756Z,70.22
2017-09-27T07:19:39.046Z,69.63
2017-09-27T07:22:10.442Z,69.08
2017-09-27T07:24:41.610Z,68.24
2017-09-27T07:27:12.904Z,67.87
2017-09-27T07:29:44.454Z,66.59
2017-09-27T07:32:15.737Z,65.08
2017-09-27T07:34:46.940Z,63.81
2017-09-27T07:37:18.439Z,62.83
2017-09-27T07:39:49.789Z,62.14
2017-09-27T07:42:20.931Z,62.39
2017-09-27T07:44:52.414Z,62.86
2017-09-27T07:47:23.559Z,63.93
2017-09-27T07:49:55.047Z,64.48
2017-09-27T07:52:26.218Z,64.93
2017-09-27T07:54:57.341Z,65.29
2017-09-27T07:57:28.759Z,65.79
2017-09-27T08:00:00.412Z,65.65
2017-09-27T08:02:34.776Z,65.48
2017-09-27T08:05:05.963Z,64.91
2017-09-27T08:07:37.460Z,63.72
2017-09-27T08:10:09.465Z,62.37
2017-09-27T08:12:42.568Z,61.22
2017-09-27T08:15:14.017Z,59.20
2017-09-27T08:17:45.392Z,57.59
2017-09-27T08:20:16.543Z,56.63
2017-09-27T08:22:47.985Z,55.83
2017-09-27T08:25:20.080Z,55.25
2017-09-27T08:27:51.209Z,54.60
2017-09-27T08:30:23.051Z,54.73
2017-09-27T08:32:56.151Z,54.01
2017-09-27T08:35:29.873Z,53.38
2017-09-27T08:38:04.272Z,53.30
2017-09-27T08:40:37.238Z,53.45
2017-09-27T08:43:08.505Z,52.92
2017-09-27T08:45:40.023Z,52.17
2017-09-27T08:48:11.097Z,51.40
2017-09-27T08:50:42.415Z,50.82
2017-09-27T08:53:13.507Z,50.09
2017-09-27T08:55:44.548Z,49.75
2017-09-27T08:58:15.578Z,49.44
2017-09-27T09:00:46.664Z,49.12
2017-09-27T09:03:18.126Z,49.00
2017-09-27T09:05:49.431Z,49.03
2017-09-27T09:08:20.502Z,49.31
2017-09-27T09:10:51.990Z,48.29
2017-09-27T09:13:23.047Z,47.29
2017-09-27T09:15:54.385Z,46.93
2017-09-27T09:18:25.455Z,46.65
2017-09-27T09:20:56.838Z,45.81
2017-09-27T09:23:28.192Z,45.03
2017-09-27T09:25:59.226Z,44.61
2017-09-27T09:28:30.947Z,44.44
2017-09-27T09:31:02.853Z,43.57
2017-09-27T09:33:36.352Z,42.78
2017-09-27T09:36:07.795Z,42.58
2017-09-27T09:38:38.904Z,41.87
2017-09-27T09:41:10.063Z,41.96
2017-09-27T09:43:41.326Z,41.69
2017-09-27T09:46:12.417Z,41.08
2017-09-27T09:48:43.757Z,40.84
2017-09-27T09:51:14.844Z,39.98
2017-09-27T09:53:47.411Z,39.31
2017-09-27T09:56:20.033Z,38.99
2017-09-27T09:58:51.476Z,38.06
2017-09-27T10:01:22.539Z,35.06
2017-09-27T10:03:53.719Z,31.21
2017-09-27T10:06:25.082Z,28.59
2017-09-27T10:08:56.137Z,25.97
2017-09-27T10:11:27.298Z,24.54
2017-09-27T10:13:58.818Z,22.31
2017-09-27T10:16:31.720Z,20.92
2017-09-27T10:19:03.101Z,20.07
2017-09-27T10:21:35.551Z,19.07
2017-09-27T10:24:06.673Z,18.57
2017-09-27T10:26:38.280Z,17.46
2017-09-27T10:29:09.747Z,16.47
2017-09-27T10:31:40.920Z,15.55
2017-09-27T10:34:12.559Z,14.62
2017-09-27T10:36:43.682Z,13.97
2017-09-27T10:39:14.973Z,13.26
2017-09-27T10:41:46.757Z,12.77
2017-09-27T10:44:17.905Z,12.21
2017-09-27T10:46:49.361Z,11.75
2017-09-27T10:49:20.817Z,11.12
2017-09-27T10:51:51.893Z,10.79
2017-09-27T10:54:23.636Z,10.81
2017-09-27T10:56:54.729Z,10.81
2017-09-27T10:59:25.865Z,11.22
2017-09-27T11:01:57.274Z,10.39
2017-09-27T11:04:28.383Z,10.33
2017-09-27T11:06:59.612Z,10.50
2017-09-27T11:09:33.634Z,10.42
2017-09-27T11:12:05.952Z,10.11
2017-09-27T11:14:39.239Z,9.67
2017-09-27T11:17:10.297Z,9.13
2017-09-27T11:19:42.096Z,9.13
2017-09-27T11:22:13.746Z,8.94
2017-09-27T11:24:44.785Z,8.58
2017-09-27T11:27:16.423Z,8.61
2017-09-27T11:29:47.507Z,8.59
2017-09-27T11:32:18.668Z,8.99
2017-09-27T11:34:50.083Z,8.66
2017-09-27T11:37:21.187Z,8.72
2017-09-27T11:39:52.291Z,8.60
2017-09-27T11:42:23.704Z,8.75
2017-09-27T11:44:55.136Z,9.26
2017-09-27T11:47:26.217Z,8.63
2017-09-27T11:49:57.567Z,8.50
2017-09-27T11:52:28.842Z,8.18
2017-09-27T11:55:00.267Z,7.85
2017-09-27T11:57:32.093Z,8.03
2017-09-27T12:00:04.858Z,7.75
2017-09-27T12:02:36.932Z,7.42
2017-09-27T12:05:08.115Z,7.14
2017-09-27T12:07:39.449Z,7.11
2017-09-27T12:10:10.592Z,6.74
2017-09-27T12:12:41.689Z,6.49
2017-09-27T12:15:13.287Z,6.85
2017-09-27T12:17:45.095Z,6.93
2017-09-27T12:20:17.888Z,7.11
2017-09-27T12:22:49.327Z,6.85
2017-09-27T12:25:20.720Z,6.76
2017-09-27T12:27:56.583Z,6.58
2017-09-27T12:33:38.300Z,6.20
2017-09-27T12:36:12.589Z,6.78
2017-09-27T12:38:58.592Z,7.13
2017-09-27T12:41:33.109Z,7.21
2017-09-27T12:44:11.220Z,6.99
2017-09-27T12:46:48.616Z,7.40
2017-09-27T12:51:31.606Z,6.88
2017-09-27T12:54:11.228Z,6.83
2017-09-27T12:56:47.780Z,6.53
2017-09-27T12:59:30.017Z,6.30
2017-09-27T13:02:07.650Z,6.12
2017-09-27T13:04:46.756Z,6.07
2017-09-27T13:07:35.373Z,6.11
2017-09-27T13:10:10.929Z,6.18
2017-09-27T13:12:48.295Z,6.44
2017-09-27T13:15:19.404Z,6.42
2017-09-27T13:17:50.508Z,6.59
2017-09-27T13:20:21.705Z,6.83
2017-09-27T13:22:52.902Z,6.63
2017-09-27T13:25:23.979Z,7.01
2017-09-27T13:27:55.980Z,7.23
2017-09-27T13:30:27.301Z,6.97
2017-09-27T13:32:58.667Z,7.44
2017-09-27T13:35:29.783Z,7.37
2017-09-27T13:38:01.817Z,7.20
2017-09-27T13:40:35.864Z,8.09
2017-09-27T13:43:10.353Z,8.18
2017-09-27T13:45:45.562Z,7.39
2017-09-27T13:48:19.388Z,7.82
2017-09-27T13:50:54.469Z,7.71
2017-09-27T13:53:28.871Z,7.95
2017-09-27T13:56:04.103Z,7.71
2017-09-27T13:58:38.861Z,7.72
2017-09-27T14:01:12.455Z,8.00
2017-09-27T14:03:48.484Z,7.93
2017-09-27T14:06:22.164Z,7.84
2017-09-27T14:08:56.074Z,7.89
2017-09-27T14:11:31.313Z,8.10
2017-09-27T14:14:04.516Z,8.19
2017-09-27T14:16:35.554Z,8.63
2017-09-27T14:19:10.159Z,8.59
2017-09-27T14:24:47.256Z,8.65
2017-09-27T14:27:19.399Z,8.94
2017-09-27T14:29:51.861Z,8.77
2017-09-27T14:32:25.251Z,8.84
2017-09-27T14:34:56.349Z,9.40
2017-09-27T14:37:27.446Z,9.31
2017-09-27T14:39:58.535Z,9.34
2017-09-27T14:42:29.943Z,9.25
2017-09-27T14:45:01.295Z,9.21
2017-09-27T14:47:32.476Z,8.90
2017-09-27T14:50:07.622Z,9.01
2017-09-27T14:52:38.739Z,8.73
2017-09-27T14:55:10.131Z,8.92
2017-09-27T14:57:41.223Z,8.67
2017-09-27T15:00:12.852Z,8.92
2017-09-27T15:02:43.995Z,9.19
2017-09-27T15:05:15.992Z,9.45
2017-09-27T15:07:48.282Z,9.61
2017-09-27T15:10:23.024Z,9.60
2017-09-27T15:12:56.907Z,9.74
2017-09-27T15:15:29.749Z,9.49
2017-09-27T15:18:02.393Z,9.52
2017-09-27T15:20:33.907Z,9.86
2017-09-27T15:23:06.932Z,9.99
2017-09-27T15:25:39.804Z,10.43
2017-09-27T15:28:11.480Z,10.80
2017-09-27T15:30:42.783Z,11.40
2017-09-27T15:33:15.476Z,11.56
2017-09-27T15:35:47.334Z,11.35
2017-09-27T15:38:19.986Z,11.30
2017-09-27T15:40:52.991Z,11.70
2017-09-27T15:46:30.466Z,12.39
2017-09-27T15:49:02.568Z,12.92
2017-09-27T15:51:36.981Z,13.64
2017-09-27T15:54:10.092Z,13.65
2017-09-27T15:56:43.955Z,13.70
2017-09-27T15:59:18.874Z,13.73
2017-09-27T16:01:51.425Z,13.71
2017-09-27T16:04:26.742Z,13.93
2017-09-27T16:07:09.570Z,14.60
2017-09-27T16:09:40.874Z,15.19
2017-09-27T16:12:12.247Z,15.47
2017-09-27T16:14:43.364Z,15.72
2017-09-27T16:17:14.870Z,16.67
2017-09-27T16:19:45.957Z,16.98
2017-09-27T16:22:17.756Z,18.34
2017-09-27T16:24:48.849Z,20.29
2017-09-27T16:27:21.620Z,22.68
2017-09-27T16:29:52.733Z,24.66
2017-09-27T16:32:26.310Z,26.70
2017-09-27T16:34:57.404Z,28.31
2017-09-27T16:37:31.108Z,29.63
2017-09-27T16:40:04.443Z,31.15
2017-09-27T16:42:35.522Z,32.56
2017-09-27T16:45:10.283Z,33.58
2017-09-27T16:47:41.748Z,34.69
2017-09-27T16:50:19.460Z,35.77
2017-09-27T16:52:50.618Z,36.48
2017-09-27T16:55:22.939Z,37.29
2017-09-27T16:57:54.468Z,37.91
2017-09-27T17:00:27.898Z,38.38
2017-09-27T17:03:09.015Z,38.95
2017-09-27T17:05:42.917Z,39.83
2017-09-27T17:08:15.000Z,40.21
2017-09-27T17:10:47.515Z,40.97
2017-09-27T17:13:18.773Z,41.80
2017-09-27T17:15:51.126Z,42.41
2017-09-27T17:18:22.891Z,42.58
2017-09-27T17:20:54.446Z,43.25
2017-09-27T17:23:25.918Z,43.55
2017-09-27T17:25:58.514Z,44.03
2017-09-27T17:28:38.353Z,44.31
2017-09-27T17:31:11.183Z,44.68
2017-09-27T17:33:43.165Z,44.93
2017-09-27T17:36:14.635Z,45.49
2017-09-27T17:38:46.107Z,46.05
2017-09-27T17:41:17.846Z,46.32
2017-09-27T17:43:49.986Z,46.55
2017-09-27T17:46:21.670Z,46.53
2017-09-27T17:51:52.212Z,46.09
2017-09-27T17:54:28.291Z,46.43
2017-09-27T17:57:00.040Z,46.99
2017-09-27T17:59:33.139Z,47.51
2017-09-27T18:02:11.904Z,47.93
2017-09-27T18:04:47.242Z,48.23
2017-09-27T18:07:22.272Z,48.54
2017-09-27T18:09:57.235Z,48.62
2017-09-27T18:12:36.759Z,48.72
2017-09-27T18:15:10.547Z,49.09
2017-09-27T18:17:45.074Z,49.16
2017-09-27T18:20:17.405Z,49.33
2017-09-27T18:22:49.994Z,49.72
2017-09-27T18:25:23.359Z,50.08
2017-09-27T18:27:54.817Z,49.84
2017-09-27T18:30:28.291Z,50.00
2017-09-27T18:32:59.731Z,50.18
2017-09-27T18:35:32.361Z,50.23
2017-09-27T18:38:10.242Z,50.67
2017-09-27T18:40:42.757Z,50.92
2017-09-27T18:43:17.221Z,51.07
2017-09-27T18:45:48.576Z,51.43
2017-09-27T18:48:26.589Z,51.79
2017-09-27T18:51:01.654Z,52.02
2017-09-27T18:53:33.191Z,52.64
2017-09-27T18:56:07.028Z,53.02
2017-09-27T18:58:38.898Z,53.13
2017-09-27T19:01:11.364Z,53.65
2017-09-27T19:06:50.777Z,54.42
2017-09-27T19:09:21.861Z,54.78
2017-09-27T19:11:53.604Z,55.19
2017-09-27T19:14:24.747Z,55.69
2017-09-27T19:16:55.822Z,56.04
2017-09-27T19:19:27.122Z,56.25
2017-09-27T19:21:58.540Z,56.57
2017-09-27T19:24:29.967Z,56.92
2017-09-27T19:27:01.316Z,57.05
2017-09-27T19:29:33.964Z,57.20
2017-09-27T19:32:06.203Z,57.39
2017-09-27T19:34:37.365Z,57.55
2017-09-27T19:37:08.748Z,57.63
2017-09-27T19:39:40.410Z,57.54
2017-09-27T19:42:12.004Z,57.79
2017-09-27T19:44:43.076Z,57.79
2017-09-27T19:47:14.957Z,57.93
2017-09-27T19:49:46.065Z,58.07
2017-09-27T19:52:17.180Z,58.03
2017-09-27T19:54:48.703Z,58.10
2017-09-27T19:57:20.624Z,58.31
2017-09-27T19:59:51.894Z,58.30
2017-09-27T20:02:23.064Z,58.13
2017-09-27T20:04:54.127Z,58.19
2017-09-27T20:07:25.710Z,58.32
2017-09-27T20:09:56.799Z,58.57
2017-09-27T20:12:27.881Z,58.78
2017-09-27T20:15:02.398Z,58.75
2017-09-27T20:17:34.902Z,58.70
2017-09-27T20:20:06.064Z,58.71
2017-09-27T20:22:37.745Z,58.83
2017-09-27T20:25:08.925Z,58.74
2017-09-27T20:27:40.201Z,58.79
2017-09-27T20:30:11.305Z,58.87
2017-09-27T20:32:42.701Z,58.97
2017-09-27T20:35:13.900Z,59.14
2017-09-27T20:37:45.049Z,59.21
2017-09-27T20:40:16.429Z,59.39
2017-09-27T20:42:47.640Z,59.66
2017-09-27T20:45:19.689Z,59.79
2017-09-27T20:47:51.054Z,59.73
2017-09-27T20:50:22.107Z,59.89
2017-09-27T20:52:53.185Z,60.23
2017-09-27T20:55:24.592Z,60.40
2017-09-27T20:57:56.050Z,60.46
2017-09-27T21:00:27.176Z,60.67
2017-09-27T21:02:58.853Z,60.75
2017-09-27T21:05:30.116Z,60.70
2017-09-27T21:08:02.128Z,60.93
2017-09-27T21:10:35.067Z,61.05
2017-09-27T21:13:06.634Z,61.19
2017-09-27T21:15:37.806Z,61.25
2017-09-27T21:18:09.509Z,61.42
2017-09-27T21:20:40.576Z,61.62
2017-09-27T21:23:11.670Z,61.64
2017-09-27T21:25:43.148Z,61.72
2017-09-27T21:28:14.417Z,61.80
2017-09-27T21:30:45.444Z,62.04
2017-09-27T21:33:16.528Z,62.22
2017-09-27T21:35:47.576Z,62.27
2017-09-27T21:38:18.874Z,62.51
2017-09-27T21:40:50.373Z,62.71
2017-09-27T21:43:21.684Z,63.04
2017-09-27T21:45:52.805Z,63.59
2017-09-27T21:48:24.969Z,64.04
2017-09-27T21:50:56.173Z,64.59
2017-09-27T21:53:27.250Z,64.83
2017-09-27T21:55:58.390Z,65.04
2017-09-27T21:58:29.420Z,65.10
2017-09-27T22:01:00.480Z,65.26
2017-09-27T22:03:32.984Z,65.23
2017-09-27T22:06:05.057Z,65.40
2017-09-27T22:08:36.392Z,65.44
2017-09-27T22:11:07.488Z,65.56
2017-09-27T22:13:39.234Z,65.80
2017-09-27T22:16:10.351Z,65.87
2017-09-27T22:18:41.625Z,65.94
2017-09-27T22:21:12.835Z,66.14
2017-09-27T22:23:44.002Z,66.31
2017-09-27T22:26:15.188Z,66.55
2017-09-27T22:28:46.916Z,66.78
2017-09-27T22:31:18.029Z,66.91
2017-09-27T22:33:49.480Z,67.05
2017-09-27T22:36:20.632Z,67.24
2017-09-27T22:38:51.932Z,67.47
2017-09-27T22:41:23.033Z,67.67
2017-09-27T22:43:54.736Z,67.81
2017-09-27T22:46:25.845Z,68.00
2017-09-27T22:48:57.109Z,68.13
2017-09-27T22:51:28.213Z,68.09
2017-09-27T22:53:59.441Z,68.02
2017-09-27T22:56:32.243Z,67.94
2017-09-27T22:59:03.786Z,67.89
2017-09-27T23:01:35.934Z,67.94
2017-09-27T23:04:07.361Z,67.78
2017-09-27T23:06:38.482Z,67.73
2017-09-27T23:09:09.639Z,68.05
2017-09-27T23:11:41.100Z,68.47
2017-09-27T23:14:12.365Z,68.50
2017-09-27T23:16:43.507Z,68.57
2017-09-27T23:19:15.059Z,68.96
2017-09-27T23:21:46.175Z,69.06
2017-09-27T23:24:17.364Z,69.29
2017-09-27T23:26:48.454Z,69.41
2017-09-27T23:29:20.417Z,69.26
2017-09-27T23:31:51.522Z,69.24
2017-09-27T23:34:22.633Z,69.16
2017-09-27T23:36:53.741Z,69.10
2017-09-27T23:39:25.004Z,69.14
2017-09-27T23:41:56.445Z,69.33
2017-09-27T23:44:27.823Z,69.35
2017-09-27T23:46:58.942Z,69.53
2017-09-27T23:49:30.423Z,69.82
2017-09-27T23:52:02.409Z,70.19
2017-09-27T23:54:36.499Z,70.47
2017-09-27T23:57:07.714Z,70.95
2017-09-27T23:59:39.145Z,71.25
